Pagrindinis puslapis
METAR-TAF:

METAR-TAF

Oro uostai :

Granada, Ispanija

platuma: 37-11N, ilguma: 003-47W, Aukštis: 567 m

Dabartinis oras

Ataskaita buvo paskelbta 38 minutes, ne 14:00 UTC
Vėjas 14 kt iš Vakarų, svyruoja nuo Vakarų/Pietvakarių ir Šiaurės Vakarų
Temperatūra 21°C
Drėgmė 28%
Slėgis 1009 hPa
Matomumas 10 km arba daugiau
Mažai debesys ne aukštis 7000 ft

METAR: LEGR 251400Z 28014KT 250V320 9999 FEW070 21/02 Q1009

Laikas: 16:38 (14:38 UTC)

Prognozė

Ataskaita buvo paskelbta 3 valandos ir 38 minutes, ne 11:00 UTC
Prognozė galioja nuo 25 metu 12 UTC su 26 metu 12 UTC
Vėjas 12 kt iš Vakarų/Šiaurės Vakarų
Matomumas 10 km arba daugiau
nėra debesų žemiau 1500 m ir nėra kamuolinių lietaus debesų
Tapsmas
nuo 25 metu 19 UTC su 25 metu 21 UTC
Vėjas 2 kt nuo kintamojo kryptimis
Tapsmas
nuo 26 metu 09 UTC su 26 metu 11 UTC
Vėjas 12 kt iš Vakarų/Šiaurės Vakarų

TAF: LEGR 251100Z 2512/2612 29012KT CAVOK TX23/2515Z TN05/2607Z BECMG 2519/2521 VRB02KT BECMG 2609/2611 29012KT

Orai ataskaitas ir orų prognozės (METAR, TAF).

turimą stotys yra geltonos ir raudonos taškus žemėlapyje.

Perkelti pele per norėdami pamatyti stoties vardą.

Tada spustelėkite, norėdami matyti oro stebėjimo ir prognozės.

Norėdami pakeisti žemėlapį: spustelėkite ant žalios mygtukų su juodo kryžiaus žemyn,; žalią mygtuką su brūkšneliu, jei norite nutolinti; arba žalių rodyklių gretimoms žemėlapius.


METAR-TAF: